KRBL/RBL METAR and TAF weather

Enter ICAO airport designator
Station Type Date Time Source
KRBL METAR 2021/05/15 22:54 UTC NOAA

KRBL 152254Z AUTO 15005KT 10SM CLR 28/09 A2978 RMK AO2 SLP082 T02780089


Station Type Date Time Source
KRBL Decoded METAR 2021/05/15 22:54 UTC NOAA

RED BLUFF MUNICIPAL AIRPORT, CA, United States (KRBL) 40-09N 122-15W 104M
May 15, 2021 - 06:54 PM EDT / 2021.05.15 2254 UTC
Wind: from the SSE (150 degrees) at 6 MPH (5 KT):0
Visibility: 10 mile(s):0
Sky conditions: clear
Temperature: 82.0 F (27.8 C)
Dew Point: 48.0 F (8.9 C)
Relative Humidity: 30%
Pressure (altimeter): 29.78 in. Hg (1008 hPa)
ob: KRBL 152254Z AUTO 15005KT 10SM CLR 28/09 A2978 RMK AO2 SLP082 T02780089
cycle: 23

Station Type Date Time Source
KRBL TAF 2021/05/15 18:28 UTC NOAA

TAF KRBL 151726Z 1518/1618 VRB04KT P6SM BKN250
FM152000 35013KT P6SM SCT100 OVC250
FM160000 16014KT P6SM VCTS BKN100CB
FM160300 16008KT P6SM VCTS BKN100CB
FM160600 VRB04KT P6SM BKN250

Example: see airport list